Time;durP1;ratioP1;P1;durP2;ratioP2;P2;SDS_P1;SDS_P2;PMS_P1;PMS_P2;Temp;Humidity;BMP_temperature;BMP_pressure;BME280_temperature;BME280_humidity;BME280_pressure;Samples;Min_cycle;Max_cycle;Signal;HPM_P1;HPM_P2
2023/12/14 08:16:51;;;;;;;;;;;;;;;8.06;69.13;99596.44;4862616;29;96567;-82
2023/12/14 08:19:28;;;;;;;;;;;;;;;7.96;69.13;99595.03;4867676;29;97805;-81
2023/12/14 08:21:54;;;;;;;;;;;;;;;7.99;69.46;99596.69;4834738;29;96745;-81
2023/12/14 08:24:21;;;;;;;;;;;;;;;8.07;68.96;99607.75;4836007;29;96594;-81
2023/12/14 08:30:49;;;;;;;;;;;;;;;8.00;68.99;99608.84;4879665;29;97038;-82
2023/12/14 08:33:14;;;;;;;;;;;;;;;8.01;68.88;99615.81;4865122;29;100718;-81
2023/12/14 08:35:40;;;;;;;;;;;;;;;7.84;68.58;99621.59;4849121;29;96701;-81
2023/12/14 08:38:05;;;;;;;;;;;;;;;7.87;69.33;99632.78;4849497;29;96919;-81
2023/12/14 08:40:31;;;;;;;;;;;;;;;7.91;68.67;99639.66;4847163;29;100476;-81
2023/12/14 08:42:57;;;;;;;;;;;;;;;7.99;69.30;99639.38;4848700;29;100344;-82
2023/12/14 08:48:27;;;;;;;;;;;;;;;8.06;68.68;99658.31;4882752;28;96615;-82
2023/12/14 08:50:53;;;;;;;;;;;;;;;8.01;68.90;99662.84;4860713;29;101489;-81
2023/12/14 08:53:19;;;;;;;;;;;;;;;8.11;68.72;99669.47;4848341;29;100806;-81
2023/12/14 08:55:44;;;;;;;;;;;;;;;8.15;68.85;99666.69;4850850;28;96801;-81
2023/12/14 08:58:10;;;;;;;;;;;;;;;8.19;68.66;99677.03;4858945;29;96850;-81
2023/12/14 09:00:38;;;;;;;;;;;;;;;8.22;69.03;99675.16;4849544;29;98792;-81
2023/12/14 09:03:03;;;;;;;;;;;;;;;8.19;69.08;99683.13;4847912;29;99460;-80
2023/12/14 09:05:29;;;;;;;;;;;;;;;8.13;68.37;99685.94;4864814;29;96851;-81
2023/12/14 09:07:56;;;;;;;;;;;;;;;8.02;68.68;99681.06;4825013;29;96791;-81
2023/12/14 09:10:22;;;;;;;;;;;;;;;7.91;69.02;99689.31;4860329;29;97990;-82
2023/12/14 09:12:47;;;;;;;;;;;;;;;7.91;69.09;99688.41;4842298;29;100497;-82
2023/12/14 09:15:13;;;;;;;;;;;;;;;7.82;69.65;99684.34;4858766;29;97249;-81
2023/12/14 09:17:39;;;;;;;;;;;;;;;7.93;69.01;99689.22;4863362;29;96881;-82
2023/12/14 09:20:05;;;;;;;;;;;;;;;7.86;69.13;99693.81;4831027;29;96683;-81
2023/12/14 09:22:31;;;;;;;;;;;;;;;7.89;69.98;99692.88;4817332;29;100820;-80
2023/12/14 09:24:57;;;;;;;;;;;;;;;7.92;69.62;99698.84;4834635;29;96757;-82
2023/12/14 09:27:25;;;;;;;;;;;;;;;7.98;69.24;99699.53;4817970;29;96535;-81
2023/12/14 09:29:50;;;;;;;;;;;;;;;8.06;68.92;99698.38;4842118;29;97954;-82
2023/12/14 09:32:17;;;;;;;;;;;;;;;8.12;68.46;99702.56;4849360;29;97108;-81
2023/12/14 09:34:51;;;;;;;;;;;;;;;8.00;68.65;99700.31;4852605;29;96722;-82
2023/12/14 09:37:19;;;;;;;;;;;;;;;8.10;68.62;99705.22;4867607;29;96701;-81
2023/12/14 09:39:46;;;;;;;;;;;;;;;8.01;68.77;99709.91;4851778;29;99100;-81
2023/12/14 09:42:12;;;;;;;;;;;;;;;8.09;68.66;99708.75;4851927;29;98704;-81
2023/12/14 09:44:38;;;;;;;;;;;;;;;8.05;69.33;99712.34;4836137;29;96630;-82
2023/12/14 09:47:22;;;;;;;;;;;;;;;7.90;69.58;99711.09;4837466;29;96384;-82
2023/12/14 09:49:52;;;;;;;;;;;;;;;7.99;69.04;99714.31;4849109;29;97788;-81
2023/12/14 09:52:18;;;;;;;;;;;;;;;8.08;69.45;99719.22;4823589;29;98815;-82
2023/12/14 09:54:44;;;;;;;;;;;;;;;7.92;69.36;99717.13;4851488;29;96680;-82
2023/12/14 09:57:11;;;;;;;;;;;;;;;8.06;68.89;99716.69;4866103;29;96536;-82
2023/12/14 09:59:37;;;;;;;;;;;;;;;8.07;69.04;99718.38;4865071;29;96734;-81
2023/12/14 10:02:10;;;;;;;;;;;;;;;8.09;68.96;99719.19;4850426;29;99643;-82
2023/12/14 10:04:37;;;;;;;;;;;;;;;8.09;69.54;99726.19;4851142;29;96568;-82
2023/12/14 10:07:06;;;;;;;;;;;;;;;8.06;69.70;99729.75;4847262;29;96959;-82
2023/12/14 10:09:46;;;;;;;;;;;;;;;8.00;68.96;99726.47;4861438;29;99499;-82
2023/12/14 10:12:12;;;;;;;;;;;;;;;7.74;69.39;99738.63;4846126;29;99280;-82
2023/12/14 10:15:00;;;;;;;;;;;;;;;7.90;69.30;99737.22;4862447;29;96908;-81
2023/12/14 10:17:31;;;;;;;;;;;;;;;7.99;69.11;99738.69;4863567;29;96662;-81
2023/12/14 10:20:05;;;;;;;;;;;;;;;8.08;68.99;99738.38;4846949;29;100720;-82
2023/12/14 10:22:32;;;;;;;;;;;;;;;8.08;68.75;99740.13;4846472;29;96786;-82
2023/12/14 10:24:58;;;;;;;;;;;;;;;8.14;69.12;99740.81;4847765;29;96597;-82
2023/12/14 10:27:24;;;;;;;;;;;;;;;8.19;68.82;99750.25;4865628;29;96803;-81
2023/12/14 10:33:00;;;;;;;;;;;;;;;8.15;68.78;99750.34;4865640;29;100401;-82
2023/12/14 10:35:29;;;;;;;;;;;;;;;8.19;68.70;99755.47;4850794;29;96766;-82
2023/12/14 10:37:54;;;;;;;;;;;;;;;8.12;68.85;99747.84;4866399;29;96612;-81
2023/12/14 10:40:41;;;;;;;;;;;;;;;8.18;68.79;99757.25;4866002;29;97547;-82
2023/12/14 10:43:07;;;;;;;;;;;;;;;8.18;68.71;99762.47;4850047;29;96786;-81
2023/12/14 10:45:33;;;;;;;;;;;;;;;8.16;68.49;99762.50;4866822;29;96734;-81
2023/12/14 10:48:20;;;;;;;;;;;;;;;8.16;68.58;99759.91;4851811;29;96705;-82
2023/12/14 10:50:46;;;;;;;;;;;;;;;8.21;68.14;99769.38;4851891;29;97793;-82
2023/12/14 10:53:11;;;;;;;;;;;;;;;8.15;68.63;99768.66;4858925;29;98571;-82
2023/12/14 10:55:38;;;;;;;;;;;;;;;8.15;68.40;99770.44;4868527;29;96553;-81
2023/12/14 10:58:04;;;;;;;;;;;;;;;8.17;68.37;99773.81;4852583;29;96730;-82
2023/12/14 11:00:33;;;;;;;;;;;;;;;8.21;68.12;99782.44;4852725;29;100245;-82
2023/12/14 11:03:19;;;;;;;;;;;;;;;8.24;68.31;99783.19;4854936;29;96723;-81
2023/12/14 11:05:46;;;;;;;;;;;;;;;8.09;68.31;99783.69;4866973;28;97170;-81
2023/12/14 11:08:28;;;;;;;;;;;;;;;8.08;68.15;99782.81;4857367;28;97121;-82
2023/12/14 11:10:57;;;;;;;;;;;;;;;8.08;68.37;99787.19;4871564;28;97685;-81
2023/12/14 11:13:28;;;;;;;;;;;;;;;7.94;68.58;99798.97;4872981;28;100368;-82
2023/12/14 11:15:53;;;;;;;;;;;;;;;7.98;68.78;99786.66;4869887;29;96425;-82
2023/12/14 11:29:11;;;;;;;;;;;;;;;8.07;68.10;99822.94;4803937;29;96598;-81
2023/12/14 11:31:37;;;;;;;;;;;;;;;8.09;68.74;99820.28;4787806;29;96617;-82
2023/12/14 11:34:04;;;;;;;;;;;;;;;8.07;68.46;99816.88;4803457;29;96774;-81
2023/12/14 11:36:31;;;;;;;;;;;;;;;8.09;68.74;99822.91;4804250;29;98161;-82
2023/12/14 11:38:57;;;;;;;;;;;;;;;8.15;68.55;99820.09;4774730;29;96828;-82
2023/12/14 12:18:32;;;;;;;;;;;;;;;7.98;68.31;99870.28;4865974;29;96944;-80
2023/12/14 14:13:45;;;;;;;;;;;;;;;7.74;68.13;100022.53;4880638;28;101018;-79
2023/12/14 15:35:20;;;;;;;;;;;;;;;7.35;67.86;100172.41;5035617;23;100337;-85
2023/12/14 15:37:45;;;;;;;;;;;;;;;7.42;67.51;100176.59;4852969;28;96668;-85
2023/12/14 16:01:55;;;;;;;;;;;;;;;7.28;67.36;100228.28;4899930;28;97530;-82
2023/12/14 16:04:20;;;;;;;;;;;;;;;7.29;67.00;100227.38;4882367;28;98904;-82
2023/12/14 16:06:46;;;;;;;;;;;;;;;7.24;67.35;100237.06;4874320;28;100785;-83
2023/12/14 16:31:04;;;;;;;;;;;;;;;7.28;66.84;100277.03;4849086;29;96760;-77
2023/12/14 16:33:30;;;;;;;;;;;;;;;7.33;66.98;100283.91;4844491;29;96753;-80
2023/12/14 16:36:16;;;;;;;;;;;;;;;7.29;67.05;100291.81;4850454;29;96563;-80
2023/12/14 16:38:44;;;;;;;;;;;;;;;7.35;66.92;100291.69;4842073;29;101005;-81
2023/12/14 16:41:09;;;;;;;;;;;;;;;7.35;67.21;100299.50;4831843;29;96495;-82
2023/12/14 16:43:35;;;;;;;;;;;;;;;7.26;67.20;100298.81;4823871;29;96815;-79
2023/12/14 16:46:00;;;;;;;;;;;;;;;7.22;67.37;100293.69;4848640;29;96813;-80
2023/12/14 16:48:26;;;;;;;;;;;;;;;7.28;67.09;100303.16;4828824;29;100156;-81
2023/12/14 16:50:55;;;;;;;;;;;;;;;7.19;66.80;100296.38;4837918;29;96857;-80
2023/12/14 16:53:21;;;;;;;;;;;;;;;7.19;66.76;100307.66;4825951;29;97339;-80
2023/12/14 16:59:14;;;;;;;;;;;;;;;7.32;66.65;100323.06;4848622;29;96866;-82
2023/12/14 17:05:09;;;;;;;;;;;;;;;7.21;66.69;100336.34;4848104;29;96646;-81
2023/12/14 17:11:20;;;;;;;;;;;;;;;7.19;67.06;100352.06;4849486;29;96558;-81
2023/12/14 17:17:37;;;;;;;;;;;;;;;6.96;67.43;100362.06;4854032;29;97309;-81
2023/12/14 17:20:03;;;;;;;;;;;;;;;6.88;67.71;100358.75;4845488;29;97665;-77
2023/12/14 17:22:32;;;;;;;;;;;;;;;7.00;67.86;100358.50;4811050;29;100814;-77
2023/12/14 17:24:58;;;;;;;;;;;;;;;7.10;67.22;100367.91;4818585;29;96932;-76
2023/12/14 17:27:24;;;;;;;;;;;;;;;7.09;67.47;100370.53;4839170;29;97483;-77
2023/12/14 17:29:50;;;;;;;;;;;;;;;7.01;67.13;100371.53;4844442;29;97334;-77
2023/12/14 17:32:15;;;;;;;;;;;;;;;6.96;67.39;100381.19;4823394;29;97205;-78
2023/12/14 17:34:41;;;;;;;;;;;;;;;7.06;66.55;100381.03;4813649;29;96635;-80
2023/12/14 17:37:06;;;;;;;;;;;;;;;7.02;66.75;100382.84;4821709;29;96916;-76
2023/12/14 17:39:31;;;;;;;;;;;;;;;7.02;66.65;100390.66;4821194;29;100902;-77
2023/12/14 17:41:57;;;;;;;;;;;;;;;7.00;66.99;100397.66;4836782;29;97374;-77
2023/12/14 17:44:22;;;;;;;;;;;;;;;7.07;66.94;100396.69;4835201;29;97471;-77
2023/12/14 17:46:48;;;;;;;;;;;;;;;6.95;66.82;100407.31;4818763;29;97296;-77
2023/12/14 17:49:13;;;;;;;;;;;;;;;7.04;66.59;100415.00;4835039;29;97766;-76
2023/12/14 17:51:40;;;;;;;;;;;;;;;7.07;66.73;100416.66;4825831;29;97565;-77
2023/12/14 17:54:05;;;;;;;;;;;;;;;7.12;66.67;100409.63;4800199;29;97284;-77
2023/12/14 17:56:31;;;;;;;;;;;;;;;7.01;66.88;100417.63;4806085;29;96808;-76
2023/12/14 17:58:56;;;;;;;;;;;;;;;6.86;67.08;100423.13;4836819;29;98439;-77
2023/12/14 18:01:21;;;;;;;;;;;;;;;6.89;67.13;100426.53;4843628;29;97444;-77
2023/12/14 18:03:49;;;;;;;;;;;;;;;6.72;67.36;100431.19;4807312;29;96863;-78
2023/12/14 18:06:15;;;;;;;;;;;;;;;6.74;67.44;100430.28;4847254;29;96748;-77
2023/12/14 18:08:40;;;;;;;;;;;;;;;6.65;67.19;100434.78;4814147;29;101071;-77
2023/12/14 18:11:06;;;;;;;;;;;;;;;6.39;67.40;100440.41;4825506;29;100771;-77
2023/12/14 18:13:31;;;;;;;;;;;;;;;6.53;67.18;100441.94;4818358;29;96788;-78
2023/12/14 18:16:03;;;;;;;;;;;;;;;6.49;67.15;100450.69;4850884;29;96764;-78
2023/12/14 18:18:28;;;;;;;;;;;;;;;6.53;66.75;100456.72;4846707;29;97839;-77
2023/12/14 18:20:53;;;;;;;;;;;;;;;6.54;66.59;100458.44;4830387;29;98031;-77
2023/12/14 18:23:19;;;;;;;;;;;;;;;6.62;66.34;100466.16;4828637;29;96722;-77
2023/12/14 19:16:02;;;;;;;;;;;;;;;6.63;65.66;100554.81;4827861;29;100100;-81
2023/12/14 19:38:29;;;;;;;28.27;19.70;;;;;;;6.40;64.78;100586.44;5056905;27;97358;-77
2023/12/14 19:56:42;;;;;;;26.13;16.70;;;;;;;6.55;63.01;100642.75;5053855;27;98067;-76
2023/12/14 20:22:59;;;;;;;22.87;13.70;;;;;;;6.40;62.32;100682.91;5054389;27;97104;-76
2023/12/14 20:33:45;;;;;;;24.10;14.13;;;;;;;6.33;62.30;100697.75;5029169;27;97603;-77
2023/12/14 20:36:11;;;;;;;23.52;14.93;;;;;;;6.34;62.47;100696.00;5020492;27;97554;-79
2023/12/14 20:51:10;;;;;;;21.58;14.38;;;;;;;6.25;62.30;100719.56;5012882;27;97934;-75
2023/12/14 21:01:49;;;;;;;24.87;15.30;;;;;;;6.26;62.43;100747.38;5010338;28;97350;-75
2023/12/14 21:08:53;;;;;;;28.33;15.87;;;;;;;6.18;62.79;100757.88;5015775;28;97518;-75
2023/12/14 21:11:22;;;;;;;23.50;15.00;;;;;;;6.15;62.71;100759.66;5012006;27;97251;-75
2023/12/14 21:14:49;;;;;;;25.77;15.20;;;;;;;6.21;62.58;100768.28;5016918;27;97281;-75
2023/12/14 21:21:24;;;;;;;29.75;17.58;;;;;;;6.17;62.74;100771.78;5035453;27;97413;-76
2023/12/14 21:31:38;;;;;;;25.43;15.40;;;;;;;6.01;63.05;100771.03;5047387;27;97672;-75
2023/12/14 21:42:20;;;;;;;21.50;13.03;;;;;;;6.01;62.60;100794.50;5042682;27;97085;-76
2023/12/14 21:49:11;;;;;;;20.67;12.87;;;;;;;5.97;62.64;100798.03;5031796;27;97636;-77
2023/12/14 21:51:37;;;;;;;23.80;13.37;;;;;;;5.72;62.61;100776.44;5032470;27;97183;-77
2023/12/14 21:54:12;;;;;;;20.70;13.10;;;;;;;5.89;63.06;100813.66;5044247;27;96746;-76
2023/12/14 22:15:41;;;;;;;24.77;13.63;;;;;;;5.88;62.32;100850.16;5042833;27;97196;-76
2023/12/14 22:18:13;;;;;;;23.03;13.70;;;;;;;5.66;62.22;100802.53;5008954;27;97438;-76
2023/12/14 22:24:51;;;;;;;19.17;11.90;;;;;;;5.85;62.13;100861.47;5032568;27;97190;-76
2023/12/14 22:28:13;;;;;;;22.43;13.00;;;;;;;5.82;62.14;100871.06;5002326;28;101506;-76
2023/12/14 22:43:11;;;;;;;24.67;14.13;;;;;;;5.70;62.78;100900.63;5045145;27;97757;-76
2023/12/14 23:22:36;;;;;;;26.17;15.07;;;;;;;5.60;62.97;100931.06;5041403;27;98138;-76
2023/12/14 23:30:11;;;;;;;24.47;14.10;;;;;;;5.66;62.50;100958.81;5039964;27;97603;-77
2023/12/14 23:52:56;;;;;;;27.67;15.83;;;;;;;5.56;63.22;100978.84;4997405;28;96690;-76
